Time;durP1;ratioP1;P1;durP2;ratioP2;P2;SDS_P1;SDS_P2;PMS_P1;PMS_P2;Temp;Humidity;BMP_temperature;BMP_pressure;BME280_temperature;BME280_humidity;BME280_pressure;Samples;Min_cycle;Max_cycle;Signal;HPM_P1;HPM_P2
2022/11/21 00:02:20;;;;;;;13.90;2.95;;;8.20;99.90;;;8.01;100.00;99861.88;5127072;28;20124;-87
2022/11/21 00:04:53;;;;;;;8.77;2.22;;;8.20;99.90;;;8.03;100.00;99862.81;5127080;28;20059;-88
2022/11/21 00:07:25;;;;;;;12.55;2.47;;;8.20;99.90;;;8.00;100.00;99863.59;5126266;29;20055;-88
2022/11/21 00:09:58;;;;;;;9.82;2.00;;;8.20;99.90;;;8.03;100.00;99863.69;5126721;29;20055;-88
2022/11/21 00:12:30;;;;;;;11.70;2.42;;;8.20;99.90;;;8.03;100.00;99874.09;5127109;29;20059;-88
2022/11/21 00:15:02;;;;;;;9.80;2.38;;;8.20;99.90;;;7.99;100.00;99868.75;5127242;28;20055;-87
2022/11/21 00:17:34;;;;;;;8.23;2.15;;;8.20;99.90;;;7.96;100.00;99871.25;5128661;28;20049;-88
2022/11/21 00:20:08;;;;;;;9.18;1.83;;;8.10;99.90;;;7.95;100.00;99869.47;5126746;28;20047;-88
2022/11/21 00:22:40;;;;;;;8.45;1.90;;;8.20;99.90;;;7.98;100.00;99869.59;5144215;28;20047;-87
2022/11/21 00:25:14;;;;;;;11.55;2.38;;;8.20;99.90;;;8.00;100.00;99867.91;5127688;28;20093;-87
2022/11/21 00:27:46;;;;;;;13.02;2.72;;;8.20;99.90;;;7.99;100.00;99873.94;5126887;28;20115;-86
2022/11/21 00:30:18;;;;;;;9.60;2.63;;;8.10;99.90;;;7.98;100.00;99879.97;5128427;28;20055;-87
2022/11/21 00:32:50;;;;;;;11.93;2.38;;;8.20;99.90;;;8.01;100.00;99877.44;5127133;29;20055;-88
2022/11/21 00:35:22;;;;;;;13.55;2.65;;;8.20;99.90;;;8.04;100.00;99885.34;5128040;28;20047;-87
2022/11/21 00:37:55;;;;;;;12.70;2.90;;;8.20;99.90;;;8.04;100.00;99885.34;5126212;29;20054;-87
2022/11/21 00:40:28;;;;;;;9.80;2.60;;;8.20;99.90;;;8.05;100.00;99881.91;5127515;28;20054;-88
2022/11/21 00:43:00;;;;;;;13.55;2.47;;;8.20;99.90;;;8.06;100.00;99878.47;5126891;29;20047;-87
2022/11/21 00:45:32;;;;;;;10.25;2.42;;;8.20;99.90;;;8.08;100.00;99871.59;5127136;29;20422;-87
2022/11/21 00:48:05;;;;;;;10.20;2.28;;;8.20;99.90;;;8.08;100.00;99881.97;5126816;29;20490;-87
2022/11/21 00:50:37;;;;;;;8.93;2.40;;;8.20;99.90;;;8.09;100.00;99873.38;5126814;29;20051;-88
2022/11/21 00:53:09;;;;;;;11.20;2.47;;;8.30;99.90;;;8.09;100.00;99883.78;5126394;29;20061;-87
2022/11/21 00:55:43;;;;;;;3.72;1.77;;;8.20;99.90;;;8.09;100.00;99888.97;5126516;29;20070;-87
2022/11/21 00:58:15;;;;;;;8.80;2.17;;;8.30;99.90;;;8.11;100.00;99882.09;5126680;29;20058;-87
2022/11/21 01:00:47;;;;;;;9.52;2.67;;;8.30;99.90;;;8.09;100.00;99883.78;5126539;28;20051;-87
2022/11/21 01:03:19;;;;;;;9.60;2.22;;;8.30;99.90;;;8.10;100.00;99880.34;5126878;29;20055;-86
2022/11/21 01:05:51;;;;;;;6.88;1.73;;;8.30;99.90;;;8.09;100.00;99883.78;5126397;28;20055;-88
2022/11/21 01:08:23;;;;;;;10.75;2.25;;;8.20;99.90;;;8.11;100.00;99876.91;5126195;28;20053;-88
2022/11/21 01:10:57;;;;;;;10.43;1.83;;;8.30;99.90;;;8.09;100.00;99881.19;5125494;28;20047;-88
2022/11/21 01:13:29;;;;;;;9.95;2.53;;;8.20;99.90;;;8.07;100.00;99881.09;5126652;28;20494;-88
2022/11/21 01:16:06;;;;;;;9.50;2.17;;;8.30;99.90;;;8.07;100.00;99886.28;5125741;28;20059;-88
2022/11/21 01:18:39;;;;;;;8.73;1.92;;;8.20;99.90;;;8.06;100.00;99876.75;5126201;29;20058;-88
2022/11/21 01:21:15;;;;;;;12.73;2.60;;;8.20;99.90;;;8.08;100.00;99893.25;5142979;28;20127;-88
2022/11/21 01:23:48;;;;;;;9.10;2.45;;;8.30;99.90;;;8.08;100.00;99892.38;5128149;29;20070;-87
2022/11/21 01:26:24;;;;;;;12.07;2.13;;;8.30;99.90;;;8.08;100.00;99892.38;5132743;28;20036;-88
2022/11/21 01:28:58;;;;;;;11.55;2.50;;;8.20;99.90;;;8.09;100.00;99895.03;5146573;28;20052;-88
2022/11/21 01:31:30;;;;;;;9.13;2.60;;;8.30;99.90;;;8.08;100.00;99894.97;5132793;28;20040;-88
2022/11/21 01:34:03;;;;;;;7.32;2.13;;;8.30;99.90;;;8.05;100.00;99900.94;5130583;28;20047;-88
2022/11/21 01:36:35;;;;;;;8.70;2.28;;;8.30;99.90;;;8.05;100.00;99897.47;5129968;28;20059;-88
2022/11/21 01:39:08;;;;;;;11.30;2.08;;;8.20;99.90;;;8.06;100.00;99894.03;5128023;29;20047;-87
2022/11/21 01:41:44;;;;;;;10.68;2.13;;;8.30;99.90;;;8.06;100.00;99901.84;5134753;28;20039;-88
2022/11/21 01:44:20;;;;;;;7.35;1.80;;;8.20;99.90;;;8.01;100.00;99896.50;5146171;28;20039;-85
2022/11/21 01:46:53;;;;;;;10.13;1.83;;;8.20;99.90;;;8.02;100.00;99894.78;5130804;28;20059;-88
2022/11/21 01:49:29;;;;;;;6.60;1.67;;;8.20;99.90;;;8.03;100.00;99896.56;5131330;28;20046;-88
2022/11/21 01:52:05;;;;;;;8.38;2.20;;;8.20;99.90;;;8.02;100.00;99907.75;5131506;28;20049;-88
2022/11/21 01:54:41;;;;;;;8.85;2.60;;;8.20;99.90;;;8.03;100.00;99904.34;5129766;28;20043;-87
2022/11/21 01:57:17;;;;;;;9.57;2.13;;;8.20;99.90;;;8.00;100.00;99893.84;5128935;28;20047;-87
2022/11/21 01:59:58;;;;;;;8.02;1.70;;;8.20;99.90;;;8.01;100.00;99895.59;5132842;28;20062;-87
2022/11/21 02:02:35;;;;;;;7.07;2.00;;;8.20;99.90;;;8.01;100.00;99903.41;5127228;28;20048;-87
2022/11/21 02:05:11;;;;;;;11.38;2.22;;;8.20;99.90;;;8.00;100.00;99896.44;5143346;28;20547;-87
2022/11/21 02:07:46;;;;;;;9.98;2.08;;;8.20;99.90;;;7.98;100.00;99901.59;5142675;28;20050;-86
2022/11/21 02:10:19;;;;;;;8.27;1.80;;;8.20;99.90;;;7.96;100.00;99897.22;5127656;29;20086;-87
2022/11/21 02:12:54;;;;;;;8.38;1.88;;;8.10;99.90;;;7.96;100.00;99905.00;5128018;28;20065;-86
2022/11/21 02:15:29;;;;;;;6.60;1.90;;;8.10;99.90;;;7.97;100.00;99909.34;5127012;29;20066;-87
2022/11/21 02:18:01;;;;;;;10.15;1.70;;;8.10;99.90;;;7.97;100.00;99904.16;5126055;28;20383;-87
2022/11/21 02:20:34;;;;;;;7.82;1.95;;;8.10;99.90;;;7.95;100.00;99895.41;5126068;29;20051;-87
2022/11/21 02:23:17;;;;;;;3.67;1.60;;;8.10;99.90;;;7.93;100.00;99910.94;5127415;28;20039;-87
2022/11/21 02:25:51;;;;;;;8.00;2.10;;;8.10;99.90;;;7.91;100.00;99903.97;5130462;28;20047;-87
2022/11/21 02:28:25;;;;;;;8.50;2.03;;;8.10;99.90;;;7.87;100.00;99913.34;5145176;28;20054;-87
2022/11/21 02:30:57;;;;;;;7.75;2.13;;;8.10;99.90;;;7.86;100.00;99896.91;5129654;28;20118;-87
2022/11/21 02:33:30;;;;;;;4.30;1.73;;;8.10;99.90;;;7.86;100.00;99909.00;5129841;28;20051;-87
2022/11/21 02:36:03;;;;;;;5.90;1.85;;;8.10;99.90;;;7.86;100.00;99907.28;5129637;29;20051;-87
2022/11/21 02:38:38;;;;;;;9.25;2.03;;;8.00;99.90;;;7.83;100.00;99898.53;5129100;29;20047;-87
2022/11/21 02:41:17;;;;;;;13.38;2.40;;;8.00;99.90;;;7.79;100.00;99901.84;5129736;29;20047;-86
2022/11/21 02:43:55;;;;;;;7.20;1.58;;;8.00;99.90;;;7.75;100.00;99897.41;5145827;28;20079;-87
2022/11/21 02:46:29;;;;;;;4.55;1.65;;;8.00;99.90;;;7.75;100.00;99903.47;5129807;29;20054;-86
2022/11/21 02:49:04;;;;;;;6.03;1.95;;;8.00;99.90;;;7.75;100.00;99897.41;5129317;28;20540;-87
2022/11/21 02:51:36;;;;;;;;;;;7.90;99.90;;;7.73;100.00;99905.13;5130205;29;20053;-87
2022/11/21 02:54:08;;;;;;;6.25;1.55;;;7.90;99.90;;;7.71;100.00;99896.44;5129344;29;19922;-86
2022/11/21 02:56:41;;;;;;;4.72;1.45;;;7.90;99.90;;;7.71;100.00;99903.34;5129394;29;20087;-86
2022/11/21 02:59:13;;;;;;;10.10;2.15;;;7.90;99.90;;;7.67;100.00;99894.56;5129217;28;20047;-87
2022/11/21 03:01:46;;;;;;;6.43;1.77;;;7.90;99.90;;;7.68;100.00;99905.81;5128761;28;20153;-87
2022/11/21 03:04:18;;;;;;;7.15;1.60;;;7.90;99.90;;;7.68;100.00;99911.88;5129082;28;20047;-87
2022/11/21 03:06:50;;;;;;;11.82;1.42;;;7.90;99.90;;;7.70;100.00;99910.25;5129283;28;20059;-86
2022/11/21 03:09:22;;;;;;;7.82;1.65;;;7.90;99.90;;;7.69;100.00;99908.44;5129206;28;20079;-87
2022/11/21 03:11:55;;;;;;;12.63;2.10;;;7.90;99.90;;;7.68;100.00;99911.88;5129274;28;20501;-87
2022/11/21 03:14:27;;;;;;;6.25;1.60;;;7.90;99.90;;;7.68;100.00;99919.66;5128878;28;20051;-87
2022/11/21 03:16:59;;;;;;;7.32;1.92;;;7.90;99.90;;;7.65;100.00;99921.28;5128955;28;20051;-86
2022/11/21 03:19:31;;;;;;;8.73;1.90;;;7.90;99.90;;;7.65;100.00;99924.75;5129163;28;20055;-87
2022/11/21 03:22:04;;;;;;;6.60;2.00;;;7.90;99.90;;;7.66;100.00;99923.94;5129169;29;20047;-87
2022/11/21 03:24:36;;;;;;;7.00;1.70;;;7.90;99.90;;;7.65;100.00;99921.28;5129437;28;20055;-87
2022/11/21 03:27:10;;;;;;;6.13;1.35;;;7.90;99.90;;;7.65;100.00;99914.41;5128985;29;20425;-87
2022/11/21 03:29:42;;;;;;;8.13;1.90;;;7.90;99.90;;;7.64;100.00;99912.63;5129148;29;20452;-86
2022/11/21 03:32:14;;;;;;;6.82;1.83;;;7.80;99.90;;;7.65;100.00;99916.97;5129141;28;20070;-87
2022/11/21 03:34:46;;;;;;;8.80;1.67;;;7.90;99.90;;;7.64;100.00;99917.81;5128496;28;20054;-87
2022/11/21 03:37:19;;;;;;;5.55;1.67;;;7.90;99.90;;;7.61;100.00;99926.38;5129057;28;20254;-87
2022/11/21 03:39:51;;;;;;;6.28;1.50;;;7.80;99.90;;;7.59;100.00;99922.84;5128994;28;20047;-86
2022/11/21 03:42:25;;;;;;;4.88;1.40;;;7.80;99.90;;;7.62;100.00;99937.63;5129996;28;20051;-86
2022/11/21 03:44:57;;;;;;;5.50;1.95;;;7.80;99.90;;;7.63;100.00;99926.44;5129419;29;20494;-87
2022/11/21 03:47:29;;;;;;;9.63;1.90;;;7.80;99.90;;;7.60;100.00;99921.13;5128870;28;20052;-87
2022/11/21 03:50:01;;;;;;;6.47;1.52;;;7.80;99.90;;;7.62;100.00;99927.25;5128514;29;20051;-87
2022/11/21 03:52:33;;;;;;;9.05;2.10;;;7.80;99.90;;;7.60;100.00;99923.72;5129126;28;20072;-87
2022/11/21 03:55:06;;;;;;;6.20;1.90;;;7.80;99.90;;;7.58;100.00;99921.09;5128576;28;20054;-88
2022/11/21 03:57:40;;;;;;;3.85;1.50;;;7.80;99.90;;;7.57;100.00;99921.94;5130348;28;20061;-84
2022/11/21 04:00:14;;;;;;;5.15;1.60;;;7.80;99.90;;;7.57;100.00;99923.66;5128881;28;20114;-86
2022/11/21 04:02:46;;;;;;;6.88;1.20;;;7.80;99.90;;;7.58;100.00;99917.63;5128144;28;20105;-88
2022/11/21 04:05:19;;;;;;;7.38;1.88;;;7.80;99.90;;;7.59;100.00;99927.16;5128989;28;20066;-87
2022/11/21 04:07:52;;;;;;;5.57;1.73;;;7.80;99.90;;;7.60;100.00;99921.13;5128616;29;20132;-85
2022/11/21 04:10:24;;;;;;;9.98;2.10;;;7.80;99.90;;;7.61;100.00;99918.59;5129174;29;20043;-86
2022/11/21 04:12:58;;;;;;;5.07;1.55;;;7.80;99.90;;;7.61;100.00;99916.00;5130033;29;20051;-87
2022/11/21 04:15:30;;;;;;;3.78;1.23;;;7.80;99.90;;;7.63;100.00;99923.84;5129523;29;20465;-87
2022/11/21 04:18:02;;;;;;;7.13;1.42;;;7.80;99.90;;;7.63;100.00;99923.84;5129567;29;20425;-87
2022/11/21 04:20:34;;;;;;;3.80;1.20;;;7.80;99.90;;;7.66;100.00;99934.31;5130156;28;20047;-86
2022/11/21 04:23:07;;;;;;;3.70;1.38;;;7.80;99.90;;;7.66;100.00;99928.25;5135012;28;20059;-86
2022/11/21 04:25:39;;;;;;;3.70;1.40;;;7.80;99.90;;;7.66;100.00;99920.47;5137259;28;20170;-86
2022/11/21 04:28:13;;;;;;;4.60;1.35;;;7.90;99.90;;;7.65;100.00;99922.19;5135476;28;20125;-86
2022/11/21 04:30:45;;;;;;;4.28;1.63;;;7.80;99.90;;;7.65;100.00;99918.69;5132886;28;20101;-86
2022/11/21 04:33:18;;;;;;;3.05;1.70;;;7.80;99.90;;;7.64;100.00;99920.41;5131773;28;20054;-86
2022/11/21 04:35:50;;;;;;;6.88;1.50;;;7.80;99.90;;;7.62;100.00;99927.25;5130076;29;20098;-87
2022/11/21 04:38:22;;;;;;;6.97;1.90;;;7.80;99.90;;;7.62;100.00;99925.53;5130693;29;20047;-87
2022/11/21 04:40:54;;;;;;;6.53;1.90;;;7.90;99.90;;;7.63;100.00;99918.66;5128125;29;20153;-87
2022/11/21 04:43:30;;;;;;;8.88;1.92;;;7.80;99.90;;;7.65;100.00;99916.97;5190827;23;20391;-70
2022/11/21 04:46:02;;;;;;;3.70;1.88;;;7.80;99.90;;;7.68;100.00;99921.38;5118935;28;20058;-69
2022/11/21 04:48:34;;;;;;;5.13;2.03;;;7.80;99.90;;;7.68;100.00;99906.69;5122608;29;20440;-70
2022/11/21 04:51:07;;;;;;;8.40;2.03;;;7.80;99.90;;;7.69;100.00;99912.75;5123176;28;20098;-70
2022/11/21 04:53:39;;;;;;;4.97;2.25;;;7.80;99.90;;;7.66;100.00;99903.19;5123506;28;20039;-70
2022/11/21 04:56:15;;;;;;;7.35;2.78;;;7.80;99.90;;;7.66;100.00;99913.56;5123124;28;20070;-70
2022/11/21 04:58:52;;;;;;;8.10;2.88;;;7.90;99.90;;;7.67;100.00;99923.09;5123500;28;20464;-70
2022/11/21 05:01:25;;;;;;;8.73;3.30;;;7.80;99.90;;;7.65;100.00;99923.88;5123212;28;20091;-71
2022/11/21 05:03:58;;;;;;;7.90;3.28;;;7.80;99.90;;;7.65;100.00;99918.69;5122499;29;20058;-70
2022/11/21 05:06:31;;;;;;;7.18;3.20;;;7.80;99.90;;;7.66;100.00;99918.75;5122667;29;20074;-72
2022/11/21 05:09:04;;;;;;;7.47;3.00;;;7.80;99.90;;;7.66;100.00;99920.47;5123639;28;20046;-69
2022/11/21 05:14:28;;;;;;;7.13;3.38;;;7.80;99.90;;;7.62;100.00;99922.06;5123952;29;20043;-70
2022/11/21 05:17:00;;;;;;;7.20;3.15;;;7.80;99.90;;;7.61;100.00;99915.13;5123689;28;20051;-70
2022/11/21 05:19:32;;;;;;;10.15;3.03;;;7.80;99.90;;;7.61;100.00;99910.81;5123495;28;20039;-70
2022/11/21 05:22:04;;;;;;;5.13;2.72;;;7.80;99.90;;;7.66;100.00;99904.91;5123659;28;20055;-71
2022/11/21 05:24:36;;;;;;;6.28;2.25;;;7.80;99.90;;;7.69;100.00;99908.44;5123601;28;20059;-71
2022/11/21 05:27:09;;;;;;;6.57;2.75;;;7.80;99.90;;;7.74;100.00;99906.00;5123591;28;20452;-70
2022/11/21 05:29:43;;;;;;;5.47;2.60;;;7.90;99.90;;;7.75;100.00;99902.59;5123792;28;20047;-70
2022/11/21 05:32:17;;;;;;;6.38;2.85;;;7.90;99.90;;;7.74;100.00;99888.72;5123407;28;20059;-71
2022/11/21 05:34:49;;;;;;;7.93;2.72;;;7.90;99.90;;;7.76;100.00;99894.88;5123750;28;20069;-70
2022/11/21 05:37:22;;;;;;;5.63;2.55;;;7.90;99.90;;;7.74;100.00;99885.25;5124058;28;20476;-70
2022/11/21 05:39:54;;;;;;;5.18;2.33;;;7.90;99.90;;;7.77;100.00;99891.44;5122975;28;20066;-71
2022/11/21 05:45:13;;;;;;;6.03;2.15;;;7.90;99.90;;;7.78;100.00;99903.56;5122990;29;20047;-70
2022/11/21 05:47:46;;;;;;;6.18;2.72;;;7.90;99.90;;;7.82;100.00;99900.25;5123408;29;20043;-69
2022/11/21 05:50:18;;;;;;;8.30;3.33;;;7.90;99.90;;;7.83;100.00;99912.41;5123210;28;20043;-70
2022/11/21 05:52:51;;;;;;;7.57;3.63;;;7.90;99.90;;;7.82;100.00;99913.22;5121987;29;20051;-70
2022/11/21 05:55:23;;;;;;;6.63;2.90;;;7.90;99.90;;;7.83;100.00;99895.94;5123233;28;20055;-70
2022/11/21 05:57:59;;;;;;;5.70;3.08;;;7.90;99.90;;;7.84;100.00;99898.59;5124533;28;20055;-70
2022/11/21 06:00:33;;;;;;;8.68;4.00;;;8.00;99.90;;;7.81;100.00;99908.84;5126040;29;20500;-71
2022/11/21 06:06:04;;;;;;;9.50;3.40;;;7.90;99.90;;;7.76;100.00;99893.97;5127517;29;20496;-70
2022/11/21 06:08:38;;;;;;;7.13;3.08;;;7.90;99.90;;;7.79;100.00;99894.94;5125595;29;20051;-71
2022/11/21 06:11:12;;;;;;;6.40;2.70;;;7.90;99.90;;;7.83;100.00;99902.00;5126033;29;20508;-70
2022/11/21 06:13:45;;;;;;;6.03;2.72;;;8.00;99.90;;;7.84;100.00;99906.38;5126824;28;20047;-70
2022/11/21 06:16:20;;;;;;;5.90;2.65;;;8.00;99.90;;;7.84;100.00;99906.38;5125731;29;20047;-69
2022/11/21 06:18:54;;;;;;;9.65;3.83;;;7.90;99.90;;;7.84;100.00;99902.88;5126751;28;20049;-70
2022/11/21 06:21:29;;;;;;;9.13;3.95;;;8.00;99.90;;;7.80;100.00;99904.50;5126703;28;20059;-70
2022/11/21 06:24:01;;;;;;;9.60;4.03;;;7.90;99.90;;;7.77;100.00;99904.41;5126603;28;20390;-70
2022/11/21 06:26:33;;;;;;;8.88;3.97;;;7.90;99.90;;;7.75;100.00;99908.66;5126806;28;20047;-69
2022/11/21 06:29:05;;;;;;;10.98;4.60;;;7.90;99.90;;;7.75;100.00;99898.28;5125222;29;20054;-71
2022/11/21 06:31:39;;;;;;;6.40;3.72;;;7.90;99.90;;;7.75;100.00;99893.09;5125364;29;20062;-70
2022/11/21 06:34:11;;;;;;;7.18;3.72;;;7.90;99.90;;;7.78;100.00;99890.59;5126609;28;20496;-70
2022/11/21 06:36:44;;;;;;;5.90;3.05;;;7.90;99.90;;;7.80;100.00;99886.34;5126720;28;20051;-70
2022/11/21 06:39:16;;;;;;;8.27;3.05;;;7.90;99.90;;;7.83;100.00;99881.25;5126684;28;20051;-70
2022/11/21 06:41:49;;;;;;;7.60;3.70;;;7.90;99.90;;;7.83;100.00;99890.75;5126655;28;20053;-69
2022/11/21 06:44:22;;;;;;;8.57;3.63;;;8.00;99.90;;;7.83;100.00;99883.84;5126254;28;20055;-70
2022/11/21 06:46:55;;;;;;;10.20;3.92;;;7.90;99.90;;;7.85;100.00;99896.88;5126599;28;20535;-69
2022/11/21 06:49:27;;;;;;;6.40;3.42;;;8.00;99.90;;;7.85;100.00;99892.56;5125787;28;20044;-69
2022/11/21 06:52:00;;;;;;;6.68;3.25;;;8.00;99.90;;;7.86;100.00;99903.81;5126425;28;20066;-69
2022/11/21 06:54:32;;;;;;;8.02;4.10;;;8.00;99.90;;;7.87;100.00;99902.97;5124748;29;20526;-70
2022/11/21 06:57:04;;;;;;;11.80;4.00;;;8.00;99.90;;;7.88;100.00;99904.72;5125215;29;20050;-69
2022/11/21 06:59:36;;;;;;;7.47;3.75;;;8.00;99.90;;;7.88;100.00;99909.91;5124663;29;20055;-69
2022/11/21 07:02:14;;;;;;;6.57;3.63;;;8.00;99.90;;;7.89;100.00;99906.53;5126561;28;20043;-70
2022/11/21 07:04:46;;;;;;;7.93;3.60;;;8.00;99.90;;;7.88;100.00;99912.50;5125967;28;20126;-58
2022/11/21 07:07:18;;;;;;;7.97;3.50;;;8.00;99.90;;;7.88;100.00;99910.78;5125827;28;20524;-56
2022/11/21 07:09:50;;;;;;;5.47;3.22;;;8.00;99.90;;;7.89;100.00;99907.41;5124659;28;20477;-58
2022/11/21 07:15:12;;;;;;;6.47;2.80;;;8.00;99.90;;;7.97;100.00;99911.94;5125878;29;20509;-60
2022/11/21 07:17:45;;;;;;;6.15;2.70;;;8.10;99.90;;;8.01;100.00;99911.19;5125318;28;20061;-59
2022/11/21 07:20:18;;;;;;;3.50;2.50;;;8.10;99.90;;;8.01;100.00;99903.41;5125847;28;20043;-57
2022/11/21 07:22:54;;;;;;;4.05;2.50;;;8.10;99.90;;;8.03;100.00;99901.75;5125827;28;20047;-58
2022/11/21 07:25:26;;;;;;;3.97;2.13;;;8.10;99.90;;;8.06;100.00;99909.63;5125623;28;20051;-59
2022/11/21 07:27:58;;;;;;;2.80;2.10;;;8.10;99.90;;;8.08;100.00;99910.53;5125743;28;20055;-57
2022/11/21 07:30:31;;;;;;;3.67;2.15;;;8.20;99.90;;;8.08;100.00;99898.44;5125944;28;20047;-59
2022/11/21 07:33:07;;;;;;;4.00;2.15;;;8.20;99.90;;;8.11;100.00;99908.06;5125679;28;20047;-57
2022/11/21 07:35:39;;;;;;;3.13;2.10;;;8.20;99.90;;;8.12;100.00;99904.63;5124260;29;20090;-59
2022/11/21 07:38:11;;;;;;;3.22;2.05;;;8.20;99.90;;;8.15;100.00;99905.59;5125718;28;20467;-58
2022/11/21 07:40:43;;;;;;;2.88;1.85;;;8.20;99.90;;;8.17;100.00;99900.44;5124677;29;20124;-58
2022/11/21 07:43:15;;;;;;;4.30;2.28;;;8.20;99.90;;;8.18;100.00;99897.00;5125572;28;20055;-57
2022/11/21 07:45:48;;;;;;;4.22;1.73;;;8.30;99.90;;;8.21;100.00;99898.81;5125807;28;20130;-58
2022/11/21 07:48:21;;;;;;;4.13;1.90;;;8.30;99.90;;;8.22;100.00;99900.59;5126077;28;20408;-57
2022/11/21 07:50:53;;;;;;;3.13;2.05;;;8.30;99.90;;;8.22;100.00;99906.66;5124839;28;20126;-56
2022/11/21 07:53:25;;;;;;;4.82;1.90;;;8.30;99.90;;;8.24;100.00;99898.91;5124699;28;20047;-58
2022/11/21 07:55:58;;;;;;;2.70;1.60;;;8.30;99.90;;;8.25;100.00;99898.97;5124843;28;20540;-57
2022/11/21 07:58:30;;;;;;;4.07;2.05;;;8.30;99.90;;;8.24;100.00;99901.50;5124689;28;20051;-56
2022/11/21 08:01:05;;;;;;;3.58;1.70;;;8.30;99.90;;;8.72;100.00;99899.47;5124615;28;20043;-55
2022/11/21 08:03:38;;;;;;;5.40;2.35;;;8.90;99.90;;;9.67;100.00;99894.16;5124508;28;20058;-56
2022/11/21 08:06:12;;;;;;;3.88;1.92;;;9.70;99.90;;;9.63;100.00;99895.78;5124259;28;20051;-56
2022/11/21 08:08:44;;;;;;;3.05;1.55;;;9.70;99.90;;;9.41;100.00;99889.19;5124477;28;20058;-56
2022/11/21 08:11:16;;;;;;;2.22;1.60;;;9.60;99.90;;;9.20;100.00;99883.47;5124315;28;20131;-60
2022/11/21 08:13:49;;;;;;;3.90;1.80;;;9.40;99.90;;;9.05;100.00;99881.31;5124202;28;20493;-57
2022/11/21 08:16:21;;;;;;;1.52;1.42;;;9.20;99.90;;;8.92;100.00;99872.31;5124210;28;20055;-59
2022/11/21 08:18:55;;;;;;;2.42;1.65;;;9.10;99.90;;;8.83;100.00;99873.78;5124225;28;20065;-55
2022/11/21 08:21:27;;;;;;;4.07;2.15;;;9.00;99.90;;;8.76;100.00;99875.34;5124212;28;20052;-59
2022/11/21 08:23:59;;;;;;;2.65;1.70;;;8.90;99.90;;;8.70;100.00;99877.78;5124682;28;20057;-58
2022/11/21 08:26:31;;;;;;;2.88;1.80;;;8.80;99.90;;;8.67;100.00;99885.47;5123468;28;20051;-57
2022/11/21 08:29:03;;;;;;;3.40;1.63;;;8.80;99.90;;;8.65;100.00;99881.97;5124424;28;20043;-58
2022/11/21 08:31:37;;;;;;;2.17;1.70;;;8.70;99.90;;;8.61;100.00;99881.00;5124123;28;20400;-57
2022/11/21 08:34:10;;;;;;;2.90;1.77;;;8.70;99.90;;;8.60;100.00;99886.13;5123934;28;20051;-58
2022/11/21 08:36:43;;;;;;;3.15;1.83;;;8.70;99.90;;;8.58;100.00;99890.41;5124193;28;20412;-57
2022/11/21 08:39:15;;;;;;;3.83;1.92;;;8.70;99.90;;;8.56;100.00;99892.09;5123885;28;20055;-56
2022/11/21 08:42:02;;;;;;;4.07;2.10;;;8.60;99.90;;;8.54;100.00;99884.28;5124025;28;20059;-60
2022/11/21 08:44:35;;;;;;;3.65;1.92;;;8.60;99.90;;;8.92;100.00;99877.50;5124078;28;20055;-56
2022/11/21 08:47:07;;;;;;;3.03;1.80;;;9.00;99.90;;;8.90;100.00;99879.19;5123640;28;20066;-57
2022/11/21 08:49:41;;;;;;;4.25;2.00;;;9.00;99.90;;;8.85;100.00;99878.19;5123579;28;20043;-55
2022/11/21 08:52:13;;;;;;;2.70;1.73;;;8.90;99.90;;;8.78;100.00;99886.66;5124247;28;20047;-57
2022/11/21 08:54:45;;;;;;;2.83;1.95;;;8.90;99.90;;;8.74;100.00;99884.84;5123580;28;20051;-58
2022/11/21 08:57:17;;;;;;;3.17;2.00;;;8.90;99.90;;;8.70;100.00;99881.25;5123719;28;20055;-54
2022/11/21 08:59:49;;;;;;;2.25;1.95;;;8.80;99.90;;;8.65;100.00;99887.16;5124154;28;20043;-58
2022/11/21 09:02:21;;;;;;;2.95;1.88;;;8.80;99.90;;;8.60;100.00;99884.41;5124227;28;20544;-54
2022/11/21 09:04:55;;;;;;;2.25;1.80;;;8.70;99.90;;;8.58;100.00;99880.03;5123938;28;20049;-58
2022/11/21 09:07:27;;;;;;;2.38;1.73;;;8.70;99.90;;;8.56;100.00;99886.91;5123676;28;20047;-56
2022/11/21 09:09:59;;;;;;;2.70;1.67;;;8.60;99.90;;;8.53;100.00;99884.22;5123788;28;20065;-57
2022/11/21 09:12:31;;;;;;;3.30;1.48;;;8.60;99.90;;;8.53;100.00;99881.59;5123827;28;20463;-55
2022/11/21 09:18:06;;;;;;;3.40;1.80;;;8.60;99.90;;;8.51;100.00;99867.72;5123962;29;20045;-58
2022/11/21 09:20:42;;;;;;;2.85;1.98;;;8.60;99.90;;;8.52;100.00;99859.06;5123872;28;20040;-54
2022/11/21 09:23:16;;;;;;;3.05;1.83;;;8.60;99.90;;;8.57;100.00;99852.28;5123812;28;20408;-53
2022/11/21 09:25:48;;;;;;;2.90;1.80;;;8.60;99.90;;;8.61;100.00;99848.97;5123411;28;20047;-56
2022/11/21 09:28:20;;;;;;;2.05;1.60;;;8.60;99.90;;;8.68;100.00;99846.56;5121863;29;20138;-57
2022/11/21 09:30:52;;;;;;;5.03;1.80;;;8.70;99.90;;;8.80;100.00;99851.22;5123907;28;20043;-56
2022/11/21 09:33:24;;;;;;;3.90;2.28;;;8.80;99.90;;;8.90;100.00;99845.41;5125389;28;20057;-55
2022/11/21 09:36:00;;;;;;;3.28;1.70;;;8.90;99.90;;;9.01;100.00;99842.22;5127850;28;20519;-56
2022/11/21 09:38:32;;;;;;;3.38;1.85;;;8.90;99.90;;;9.14;100.00;99847.78;5127524;28;20039;-56
2022/11/21 09:44:25;;;;;;;3.70;2.13;;;9.20;99.90;;;9.43;100.00;99845.00;5127184;29;20062;-54
2022/11/21 09:47:07;;;;;;;3.42;2.00;;;9.30;99.90;;;9.56;100.00;99847.06;5127517;28;20061;-56
2022/11/21 09:49:43;;;;;;;5.95;2.58;;;9.50;99.90;;;9.56;100.00;99846.19;5127015;28;20051;-56
2022/11/21 09:52:21;;;;;;;4.15;2.00;;;9.50;99.90;;;9.61;100.00;99844.56;5126898;28;20080;-56
2022/11/21 09:55:00;;;;;;;4.80;2.40;;;9.50;99.90;;;9.77;100.00;99839.72;5127039;28;20058;-57
2022/11/21 09:57:35;;;;;;;6.43;2.13;;;9.70;99.90;;;9.96;100.00;99830.63;5127022;28;20051;-56
2022/11/21 10:00:19;;;;;;;4.07;2.03;;;9.80;99.90;;;10.10;100.00;99830.03;5125723;29;20047;-56
2022/11/21 10:02:52;;;;;;;5.00;1.77;;;10.00;99.90;;;10.63;100.00;99819.84;5126885;28;20047;-56
2022/11/21 10:05:36;;;;;;;7.15;1.98;;;10.50;99.90;;;11.39;100.00;99819.47;5126690;28;20039;-56
2022/11/21 10:08:22;;;;;;;3.17;1.40;;;11.40;99.90;;;11.33;100.00;99819.34;5126869;28;20085;-55
2022/11/21 10:10:57;;;;;;;1.40;1.20;;;11.40;99.90;;;11.14;100.00;99826.00;5126055;29;20403;-56
2022/11/21 10:13:48;;;;;;;2.30;1.52;;;11.30;99.90;;;10.90;100.00;99817.78;5127310;28;20058;-56
2022/11/21 10:16:33;;;;;;;1.95;1.35;;;11.10;99.90;;;10.65;100.00;99812.97;5126755;28;20385;-56
2022/11/21 10:19:42;;;;;;;3.35;1.35;;;10.80;99.90;;;10.49;100.00;99798.75;5126974;28;20415;-57
2022/11/21 10:22:37;;;;;;;2.60;1.77;;;10.60;99.90;;;10.39;100.00;99805.50;5127615;28;20051;-56
2022/11/21 10:25:15;;;;;;;2.38;1.73;;;10.50;99.90;;;10.35;100.00;99795.88;5127197;28;20069;-56
2022/11/21 10:27:52;;;;;;;1.88;1.42;;;10.40;99.90;;;10.43;100.00;99794.31;5127090;28;20399;-58
2022/11/21 10:30:24;;;;;;;1.88;1.33;;;10.40;99.90;;;10.49;100.00;99778.78;5126959;28;20047;-54
2022/11/21 10:32:59;;;;;;;1.77;1.17;;;10.50;99.90;;;10.55;100.00;99784.09;5126961;28;20047;-56
2022/11/21 10:35:39;;;;;;;2.38;1.50;;;10.50;99.90;;;10.75;100.00;99770.56;5126962;28;20115;-56
2022/11/21 10:38:22;;;;;;;1.70;1.00;;;10.60;99.90;;;11.05;100.00;99772.81;5126815;28;20051;-58
2022/11/21 10:41:03;;;;;;;1.73;1.08;;;10.80;99.90;;;11.35;100.00;99775.94;5126721;28;20050;-58
2022/11/21 10:46:11;;;;;;;1.15;0.90;;;11.30;99.90;;;11.59;100.00;99764.97;5124963;28;20075;-85
2022/11/21 10:48:53;;;;;;;0.82;0.75;;;11.40;99.90;;;11.48;100.00;99760.47;5122470;29;20047;-87
2022/11/21 10:51:38;;;;;;;0.68;0.68;;;11.30;99.90;;;11.36;100.00;99761.16;5130451;28;20044;-87
2022/11/21 10:57:12;;;;;;;1.73;1.00;;;11.20;99.90;;;11.23;100.00;99756.59;5095290;29;20052;-85
2022/11/21 11:00:15;;;;;;;1.58;1.00;;;11.20;99.90;;;11.17;100.00;99743.47;5095990;29;20052;-86
2022/11/21 11:03:07;;;;;;;2.25;0.95;;;11.10;99.90;;;11.11;100.00;99742.50;5096902;29;20044;-85
2022/11/21 11:05:40;;;;;;;2.20;0.98;;;11.00;99.90;;;11.12;100.00;99736.44;5095932;29;20044;-86
2022/11/21 11:08:14;;;;;;;4.15;1.00;;;11.00;99.90;;;11.16;100.00;99736.50;5095724;29;20068;-85
2022/11/21 11:11:03;;;;;;;0.85;0.60;;;11.10;99.90;;;11.19;100.00;99731.31;5095376;29;20044;-86
2022/11/21 11:13:57;;;;;;;1.38;0.70;;;11.10;99.90;;;11.17;100.00;99727.81;5095450;29;20063;-82
2022/11/21 11:16:30;;;;;;;;;;;11.10;99.90;;;11.12;100.00;99720.78;5092663;29;20044;-86
2022/11/21 11:19:07;;;;;;;2.50;0.75;;;11.10;99.90;;;11.12;100.00;99705.13;5087771;29;19935;-84